sensor_id;sensor_type;location;lat;lon;timestamp;temperature;humidity
57026;DHT22;43961;52.940;6.834;2023-05-14T00:00:14;12.00;99.90
57026;DHT22;43961;52.940;6.834;2023-05-14T00:02:40;12.00;99.90
57026;DHT22;43961;52.940;6.834;2023-05-14T00:05:07;12.00;99.90
57026;DHT22;43961;52.940;6.834;2023-05-14T00:07:33;11.90;99.90
57026;DHT22;43961;52.940;6.834;2023-05-14T00:09:58;11.90;99.90
57026;DHT22;43961;52.940;6.834;2023-05-14T00:12:25;11.80;99.90
57026;DHT22;43961;52.940;6.834;2023-05-14T00:14:51;11.70;99.90
57026;DHT22;43961;52.940;6.834;2023-05-14T00:17:17;11.70;99.90
57026;DHT22;43961;52.940;6.834;2023-05-14T00:19:43;11.70;99.90
57026;DHT22;43961;52.940;6.834;2023-05-14T00:22:10;11.70;99.90
57026;DHT22;43961;52.940;6.834;2023-05-14T00:24:36;11.70;99.90
57026;DHT22;43961;52.940;6.834;2023-05-14T00:27:02;11.70;99.90
57026;DHT22;43961;52.940;6.834;2023-05-14T00:29:28;11.70;99.90
57026;DHT22;43961;52.940;6.834;2023-05-14T00:31:54;11.70;99.90
57026;DHT22;43961;52.940;6.834;2023-05-14T00:34:20;11.70;99.90
57026;DHT22;43961;52.940;6.834;2023-05-14T00:36:46;11.70;99.90
57026;DHT22;43961;52.940;6.834;2023-05-14T00:39:13;11.70;99.90
57026;DHT22;43961;52.940;6.834;2023-05-14T00:41:38;11.60;99.90
57026;DHT22;43961;52.940;6.834;2023-05-14T00:44:04;11.70;99.90
57026;DHT22;43961;52.940;6.834;2023-05-14T00:46:30;11.70;99.90
57026;DHT22;43961;52.940;6.834;2023-05-14T00:48:56;11.60;99.90
57026;DHT22;43961;52.940;6.834;2023-05-14T00:51:23;11.60;99.90
57026;DHT22;43961;52.940;6.834;2023-05-14T00:53:49;11.50;99.90
57026;DHT22;43961;52.940;6.834;2023-05-14T00:56:15;11.50;99.90
57026;DHT22;43961;52.940;6.834;2023-05-14T00:58:41;11.50;99.90
57026;DHT22;43961;52.940;6.834;2023-05-14T01:01:08;11.50;99.90
57026;DHT22;43961;52.940;6.834;2023-05-14T01:03:34;11.50;99.90
57026;DHT22;43961;52.940;6.834;2023-05-14T01:06:15;11.50;99.90
57026;DHT22;43961;52.940;6.834;2023-05-14T01:08:49;11.50;99.90
57026;DHT22;43961;52.940;6.834;2023-05-14T01:11:28;11.50;99.90
57026;DHT22;43961;52.940;6.834;2023-05-14T01:14:02;11.50;99.90
57026;DHT22;43961;52.940;6.834;2023-05-14T01:16:30;11.50;99.90
57026;DHT22;43961;52.940;6.834;2023-05-14T01:18:59;11.50;99.90
57026;DHT22;43961;52.940;6.834;2023-05-14T01:21:35;11.50;99.90
57026;DHT22;43961;52.940;6.834;2023-05-14T01:24:01;11.50;99.90
57026;DHT22;43961;52.940;6.834;2023-05-14T01:26:29;11.40;99.90
57026;DHT22;43961;52.940;6.834;2023-05-14T01:28:58;11.40;99.90
57026;DHT22;43961;52.940;6.834;2023-05-14T01:31:26;11.40;99.90
57026;DHT22;43961;52.940;6.834;2023-05-14T01:33:54;11.40;99.90
57026;DHT22;43961;52.940;6.834;2023-05-14T01:36:22;11.40;99.90
57026;DHT22;43961;52.940;6.834;2023-05-14T01:38:49;11.40;99.90
57026;DHT22;43961;52.940;6.834;2023-05-14T01:41:17;11.30;99.90
57026;DHT22;43961;52.940;6.834;2023-05-14T01:43:44;11.30;99.90
57026;DHT22;43961;52.940;6.834;2023-05-14T01:46:09;11.30;99.90
57026;DHT22;43961;52.940;6.834;2023-05-14T01:48:35;11.30;99.90
57026;DHT22;43961;52.940;6.834;2023-05-14T01:51:02;11.30;99.90
57026;DHT22;43961;52.940;6.834;2023-05-14T01:53:28;11.20;99.90
57026;DHT22;43961;52.940;6.834;2023-05-14T01:55:53;11.20;99.90
57026;DHT22;43961;52.940;6.834;2023-05-14T01:58:19;11.20;99.90
57026;DHT22;43961;52.940;6.834;2023-05-14T02:00:46;11.20;99.90
57026;DHT22;43961;52.940;6.834;2023-05-14T02:03:11;11.20;99.90
57026;DHT22;43961;52.940;6.834;2023-05-14T02:05:37;11.20;99.90
57026;DHT22;43961;52.940;6.834;2023-05-14T02:08:03;11.10;99.90
57026;DHT22;43961;52.940;6.834;2023-05-14T02:10:29;11.10;99.90
57026;DHT22;43961;52.940;6.834;2023-05-14T02:12:55;11.10;99.90
57026;DHT22;43961;52.940;6.834;2023-05-14T02:15:21;11.10;99.90
57026;DHT22;43961;52.940;6.834;2023-05-14T02:17:48;11.00;99.90
57026;DHT22;43961;52.940;6.834;2023-05-14T02:20:14;10.90;99.90
57026;DHT22;43961;52.940;6.834;2023-05-14T02:22:39;10.80;99.90
57026;DHT22;43961;52.940;6.834;2023-05-14T02:25:09;10.80;99.90
57026;DHT22;43961;52.940;6.834;2023-05-14T02:27:35;10.80;99.90
57026;DHT22;43961;52.940;6.834;2023-05-14T02:30:02;10.80;99.90
57026;DHT22;43961;52.940;6.834;2023-05-14T02:32:28;10.80;99.90
57026;DHT22;43961;52.940;6.834;2023-05-14T02:34:54;10.80;99.90
57026;DHT22;43961;52.940;6.834;2023-05-14T02:37:20;10.80;99.90
57026;DHT22;43961;52.940;6.834;2023-05-14T02:39:46;10.80;99.90
57026;DHT22;43961;52.940;6.834;2023-05-14T02:42:13;10.80;99.90
57026;DHT22;43961;52.940;6.834;2023-05-14T02:44:38;10.80;99.90
57026;DHT22;43961;52.940;6.834;2023-05-14T02:47:05;10.80;99.90
57026;DHT22;43961;52.940;6.834;2023-05-14T02:49:31;10.80;99.90
57026;DHT22;43961;52.940;6.834;2023-05-14T02:51:56;10.80;99.90
57026;DHT22;43961;52.940;6.834;2023-05-14T02:54:23;10.80;99.90
57026;DHT22;43961;52.940;6.834;2023-05-14T02:56:49;10.70;99.90
57026;DHT22;43961;52.940;6.834;2023-05-14T02:59:15;10.80;99.90
57026;DHT22;43961;52.940;6.834;2023-05-14T03:01:40;10.70;99.90
57026;DHT22;43961;52.940;6.834;2023-05-14T03:04:06;10.70;99.90
57026;DHT22;43961;52.940;6.834;2023-05-14T03:06:32;10.60;99.90
57026;DHT22;43961;52.940;6.834;2023-05-14T03:08:57;10.70;99.90
57026;DHT22;43961;52.940;6.834;2023-05-14T03:11:23;10.60;99.90
57026;DHT22;43961;52.940;6.834;2023-05-14T03:13:49;10.60;99.90
57026;DHT22;43961;52.940;6.834;2023-05-14T03:16:14;10.60;99.90
57026;DHT22;43961;52.940;6.834;2023-05-14T03:18:40;10.60;99.90
57026;DHT22;43961;52.940;6.834;2023-05-14T03:21:06;10.60;99.90
57026;DHT22;43961;52.940;6.834;2023-05-14T03:23:33;10.60;99.90
57026;DHT22;43961;52.940;6.834;2023-05-14T03:26:00;10.50;99.90
57026;DHT22;43961;52.940;6.834;2023-05-14T03:28:26;10.50;99.90
57026;DHT22;43961;52.940;6.834;2023-05-14T03:30:52;10.50;99.90
57026;DHT22;43961;52.940;6.834;2023-05-14T03:33:17;10.50;99.90
57026;DHT22;43961;52.940;6.834;2023-05-14T03:35:43;10.50;99.90
57026;DHT22;43961;52.940;6.834;2023-05-14T03:38:09;10.50;99.90
57026;DHT22;43961;52.940;6.834;2023-05-14T03:40:34;10.50;99.90
57026;DHT22;43961;52.940;6.834;2023-05-14T03:43:00;10.50;99.90
57026;DHT22;43961;52.940;6.834;2023-05-14T03:45:26;10.50;99.90
57026;DHT22;43961;52.940;6.834;2023-05-14T03:47:53;10.40;99.90
57026;DHT22;43961;52.940;6.834;2023-05-14T03:50:18;10.30;99.90
57026;DHT22;43961;52.940;6.834;2023-05-14T03:52:44;10.30;99.90
57026;DHT22;43961;52.940;6.834;2023-05-14T03:55:10;10.30;99.90
57026;DHT22;43961;52.940;6.834;2023-05-14T03:57:36;10.30;99.90
57026;DHT22;43961;52.940;6.834;2023-05-14T04:00:05;10.30;99.90
57026;DHT22;43961;52.940;6.834;2023-05-14T04:02:31;10.30;99.90
57026;DHT22;43961;52.940;6.834;2023-05-14T04:04:57;10.30;99.90
57026;DHT22;43961;52.940;6.834;2023-05-14T04:07:22;10.30;99.90
57026;DHT22;43961;52.940;6.834;2023-05-14T04:09:48;10.30;99.90
57026;DHT22;43961;52.940;6.834;2023-05-14T04:12:14;10.30;99.90
57026;DHT22;43961;52.940;6.834;2023-05-14T04:14:39;10.30;99.90
57026;DHT22;43961;52.940;6.834;2023-05-14T04:17:05;10.30;99.90
57026;DHT22;43961;52.940;6.834;2023-05-14T04:19:30;10.30;99.90
57026;DHT22;43961;52.940;6.834;2023-05-14T04:21:56;10.30;99.90
57026;DHT22;43961;52.940;6.834;2023-05-14T04:24:22;10.30;99.90
57026;DHT22;43961;52.940;6.834;2023-05-14T04:26:47;10.30;99.90
57026;DHT22;43961;52.940;6.834;2023-05-14T04:29:13;10.40;99.90
57026;DHT22;43961;52.940;6.834;2023-05-14T04:31:39;10.50;99.90
57026;DHT22;43961;52.940;6.834;2023-05-14T04:34:05;10.50;99.90
57026;DHT22;43961;52.940;6.834;2023-05-14T04:36:30;10.50;99.90
57026;DHT22;43961;52.940;6.834;2023-05-14T04:38:56;10.60;99.90
57026;DHT22;43961;52.940;6.834;2023-05-14T04:41:22;10.60;99.90
57026;DHT22;43961;52.940;6.834;2023-05-14T04:43:49;10.60;99.90
57026;DHT22;43961;52.940;6.834;2023-05-14T04:46:15;10.70;99.90
57026;DHT22;43961;52.940;6.834;2023-05-14T04:48:40;10.60;99.90
57026;DHT22;43961;52.940;6.834;2023-05-14T04:51:06;10.70;99.90
57026;DHT22;43961;52.940;6.834;2023-05-14T04:53:32;10.80;99.90
57026;DHT22;43961;52.940;6.834;2023-05-14T04:55:58;10.90;99.90
57026;DHT22;43961;52.940;6.834;2023-05-14T04:58:23;11.00;99.90
57026;DHT22;43961;52.940;6.834;2023-05-14T05:00:49;11.10;99.90
57026;DHT22;43961;52.940;6.834;2023-05-14T05:03:15;11.20;99.90
57026;DHT22;43961;52.940;6.834;2023-05-14T05:05:40;11.20;99.90
57026;DHT22;43961;52.940;6.834;2023-05-14T05:08:06;11.30;99.90
57026;DHT22;43961;52.940;6.834;2023-05-14T05:10:32;11.40;99.90
57026;DHT22;43961;52.940;6.834;2023-05-14T05:12:57;11.40;99.90
57026;DHT22;43961;52.940;6.834;2023-05-14T05:15:23;11.40;99.90
57026;DHT22;43961;52.940;6.834;2023-05-14T05:17:49;11.50;99.90
57026;DHT22;43961;52.940;6.834;2023-05-14T05:20:14;11.60;99.90
57026;DHT22;43961;52.940;6.834;2023-05-14T05:22:40;11.60;99.90
57026;DHT22;43961;52.940;6.834;2023-05-14T05:25:06;11.60;99.90
57026;DHT22;43961;52.940;6.834;2023-05-14T05:27:32;11.70;99.90
57026;DHT22;43961;52.940;6.834;2023-05-14T05:29:59;11.80;99.90
57026;DHT22;43961;52.940;6.834;2023-05-14T05:32:25;11.90;99.90
57026;DHT22;43961;52.940;6.834;2023-05-14T05:34:51;12.00;99.90
57026;DHT22;43961;52.940;6.834;2023-05-14T05:37:17;12.10;99.90
57026;DHT22;43961;52.940;6.834;2023-05-14T05:39:42;12.20;99.90
57026;DHT22;43961;52.940;6.834;2023-05-14T05:42:08;12.30;99.90
57026;DHT22;43961;52.940;6.834;2023-05-14T05:44:34;12.30;99.90
57026;DHT22;43961;52.940;6.834;2023-05-14T05:47:00;12.30;99.90
57026;DHT22;43961;52.940;6.834;2023-05-14T05:49:26;12.50;99.90
57026;DHT22;43961;52.940;6.834;2023-05-14T05:51:51;12.50;99.90
57026;DHT22;43961;52.940;6.834;2023-05-14T05:54:17;12.60;99.90
57026;DHT22;43961;52.940;6.834;2023-05-14T05:56:43;12.60;99.90
57026;DHT22;43961;52.940;6.834;2023-05-14T05:59:08;12.80;99.90
57026;DHT22;43961;52.940;6.834;2023-05-14T06:01:34;12.80;99.90
57026;DHT22;43961;52.940;6.834;2023-05-14T06:04:00;12.90;99.90
57026;DHT22;43961;52.940;6.834;2023-05-14T06:06:27;13.00;99.90
57026;DHT22;43961;52.940;6.834;2023-05-14T06:08:52;13.00;99.90
57026;DHT22;43961;52.940;6.834;2023-05-14T06:11:18;13.10;99.90
57026;DHT22;43961;52.940;6.834;2023-05-14T06:13:44;13.10;99.90
57026;DHT22;43961;52.940;6.834;2023-05-14T06:16:10;13.20;99.90
57026;DHT22;43961;52.940;6.834;2023-05-14T06:18:38;13.20;99.90
57026;DHT22;43961;52.940;6.834;2023-05-14T06:21:04;13.20;99.90
57026;DHT22;43961;52.940;6.834;2023-05-14T06:23:29;13.30;99.90
57026;DHT22;43961;52.940;6.834;2023-05-14T06:25:55;13.30;99.90
57026;DHT22;43961;52.940;6.834;2023-05-14T06:28:21;13.40;99.90
57026;DHT22;43961;52.940;6.834;2023-05-14T06:30:49;13.40;99.90
57026;DHT22;43961;52.940;6.834;2023-05-14T06:33:14;13.50;99.90
57026;DHT22;43961;52.940;6.834;2023-05-14T06:35:40;13.60;99.90
57026;DHT22;43961;52.940;6.834;2023-05-14T06:38:06;13.60;99.90
57026;DHT22;43961;52.940;6.834;2023-05-14T06:40:31;13.60;99.90
57026;DHT22;43961;52.940;6.834;2023-05-14T06:42:57;13.80;99.90
57026;DHT22;43961;52.940;6.834;2023-05-14T06:45:23;13.80;99.90
57026;DHT22;43961;52.940;6.834;2023-05-14T06:47:48;14.00;99.90
57026;DHT22;43961;52.940;6.834;2023-05-14T06:50:14;14.10;99.90
57026;DHT22;43961;52.940;6.834;2023-05-14T06:52:40;14.30;99.90
57026;DHT22;43961;52.940;6.834;2023-05-14T06:55:07;14.50;99.90
57026;DHT22;43961;52.940;6.834;2023-05-14T06:57:33;14.70;99.90
57026;DHT22;43961;52.940;6.834;2023-05-14T06:59:59;14.80;99.90
57026;DHT22;43961;52.940;6.834;2023-05-14T07:02:24;15.10;99.90
57026;DHT22;43961;52.940;6.834;2023-05-14T07:04:50;15.30;99.90
57026;DHT22;43961;52.940;6.834;2023-05-14T07:07:16;15.60;99.90
57026;DHT22;43961;52.940;6.834;2023-05-14T07:09:44;15.90;99.90
57026;DHT22;43961;52.940;6.834;2023-05-14T07:12:10;16.10;99.90
57026;DHT22;43961;52.940;6.834;2023-05-14T07:14:36;16.10;99.90
57026;DHT22;43961;52.940;6.834;2023-05-14T07:17:02;16.30;99.90
57026;DHT22;43961;52.940;6.834;2023-05-14T07:19:28;16.30;99.90
57026;DHT22;43961;52.940;6.834;2023-05-14T07:21:55;16.30;99.90
57026;DHT22;43961;52.940;6.834;2023-05-14T07:24:21;16.20;99.90
57026;DHT22;43961;52.940;6.834;2023-05-14T07:26:48;16.10;99.90
57026;DHT22;43961;52.940;6.834;2023-05-14T07:29:13;16.20;99.90
57026;DHT22;43961;52.940;6.834;2023-05-14T07:31:39;16.20;99.90
57026;DHT22;43961;52.940;6.834;2023-05-14T07:34:05;16.20;99.90
57026;DHT22;43961;52.940;6.834;2023-05-14T07:36:30;16.30;99.90
57026;DHT22;43961;52.940;6.834;2023-05-14T07:38:56;16.60;99.90
57026;DHT22;43961;52.940;6.834;2023-05-14T07:41:22;16.70;99.90
57026;DHT22;43961;52.940;6.834;2023-05-14T07:43:51;16.70;99.90
57026;DHT22;43961;52.940;6.834;2023-05-14T07:46:17;16.70;99.90
57026;DHT22;43961;52.940;6.834;2023-05-14T07:48:43;16.80;99.90
57026;DHT22;43961;52.940;6.834;2023-05-14T07:51:09;16.90;99.90
57026;DHT22;43961;52.940;6.834;2023-05-14T07:53:36;17.00;99.90
57026;DHT22;43961;52.940;6.834;2023-05-14T07:56:02;17.10;99.90
57026;DHT22;43961;52.940;6.834;2023-05-14T07:58:27;17.10;99.90
57026;DHT22;43961;52.940;6.834;2023-05-14T08:00:53;16.90;99.90
57026;DHT22;43961;52.940;6.834;2023-05-14T08:03:19;16.70;99.90
57026;DHT22;43961;52.940;6.834;2023-05-14T08:05:44;16.70;99.90
57026;DHT22;43961;52.940;6.834;2023-05-14T08:08:10;16.60;99.90
57026;DHT22;43961;52.940;6.834;2023-05-14T08:10:37;16.60;99.90
57026;DHT22;43961;52.940;6.834;2023-05-14T08:13:02;16.60;99.90
57026;DHT22;43961;52.940;6.834;2023-05-14T08:15:28;16.60;99.90
57026;DHT22;43961;52.940;6.834;2023-05-14T08:17:53;16.50;99.90
57026;DHT22;43961;52.940;6.834;2023-05-14T08:20:19;16.50;99.90
57026;DHT22;43961;52.940;6.834;2023-05-14T08:22:45;16.50;99.90
57026;DHT22;43961;52.940;6.834;2023-05-14T08:25:11;16.50;99.90
57026;DHT22;43961;52.940;6.834;2023-05-14T08:27:36;16.60;99.90
57026;DHT22;43961;52.940;6.834;2023-05-14T08:30:05;16.70;99.90
57026;DHT22;43961;52.940;6.834;2023-05-14T08:32:31;16.70;99.90
57026;DHT22;43961;52.940;6.834;2023-05-14T08:34:56;16.80;99.90
57026;DHT22;43961;52.940;6.834;2023-05-14T08:37:25;16.90;99.90
57026;DHT22;43961;52.940;6.834;2023-05-14T08:39:51;17.00;99.90
57026;DHT22;43961;52.940;6.834;2023-05-14T08:42:19;17.00;99.90
57026;DHT22;43961;52.940;6.834;2023-05-14T08:44:51;17.00;99.90
57026;DHT22;43961;52.940;6.834;2023-05-14T08:47:20;17.00;99.90
57026;DHT22;43961;52.940;6.834;2023-05-14T08:49:48;17.10;99.90
57026;DHT22;43961;52.940;6.834;2023-05-14T08:52:17;17.30;99.90
57026;DHT22;43961;52.940;6.834;2023-05-14T08:54:45;17.30;99.90
57026;DHT22;43961;52.940;6.834;2023-05-14T08:57:15;17.30;99.90
57026;DHT22;43961;52.940;6.834;2023-05-14T08:59:41;17.30;99.90
57026;DHT22;43961;52.940;6.834;2023-05-14T09:02:14;17.30;99.90
57026;DHT22;43961;52.940;6.834;2023-05-14T09:04:42;17.50;99.90
57026;DHT22;43961;52.940;6.834;2023-05-14T09:07:08;17.70;99.90
57026;DHT22;43961;52.940;6.834;2023-05-14T09:09:33;17.80;99.90
57026;DHT22;43961;52.940;6.834;2023-05-14T09:12:00;17.70;99.90
57026;DHT22;43961;52.940;6.834;2023-05-14T09:14:25;17.70;99.90
57026;DHT22;43961;52.940;6.834;2023-05-14T09:16:51;17.70;99.90
57026;DHT22;43961;52.940;6.834;2023-05-14T09:19:17;17.70;99.90
57026;DHT22;43961;52.940;6.834;2023-05-14T09:21:44;17.70;99.90
57026;DHT22;43961;52.940;6.834;2023-05-14T09:24:21;17.80;99.90
57026;DHT22;43961;52.940;6.834;2023-05-14T09:26:53;18.10;99.90
57026;DHT22;43961;52.940;6.834;2023-05-14T09:29:19;18.20;99.90
57026;DHT22;43961;52.940;6.834;2023-05-14T09:31:44;18.20;99.90
57026;DHT22;43961;52.940;6.834;2023-05-14T09:34:10;18.30;99.90
57026;DHT22;43961;52.940;6.834;2023-05-14T09:36:36;18.20;99.90
57026;DHT22;43961;52.940;6.834;2023-05-14T09:39:03;18.50;99.90
57026;DHT22;43961;52.940;6.834;2023-05-14T09:41:29;18.70;99.90
57026;DHT22;43961;52.940;6.834;2023-05-14T09:43:54;18.90;99.90
57026;DHT22;43961;52.940;6.834;2023-05-14T09:46:22;19.00;99.90
57026;DHT22;43961;52.940;6.834;2023-05-14T09:48:49;19.00;99.90
57026;DHT22;43961;52.940;6.834;2023-05-14T09:51:16;19.10;99.90
57026;DHT22;43961;52.940;6.834;2023-05-14T09:53:45;19.20;99.90
57026;DHT22;43961;52.940;6.834;2023-05-14T09:56:12;19.40;99.90
57026;DHT22;43961;52.940;6.834;2023-05-14T09:58:38;19.60;99.90
57026;DHT22;43961;52.940;6.834;2023-05-14T10:01:05;19.50;98.90
57026;DHT22;43961;52.940;6.834;2023-05-14T10:03:33;19.40;99.90
57026;DHT22;43961;52.940;6.834;2023-05-14T10:06:03;19.50;99.90
57026;DHT22;43961;52.940;6.834;2023-05-14T10:08:33;19.70;99.90
57026;DHT22;43961;52.940;6.834;2023-05-14T10:11:02;19.90;96.40
57026;DHT22;43961;52.940;6.834;2023-05-14T10:13:35;20.00;94.80
57026;DHT22;43961;52.940;6.834;2023-05-14T10:19:10;20.20;91.40
57026;DHT22;43961;52.940;6.834;2023-05-14T10:21:39;20.10;78.80
57026;DHT22;43961;52.940;6.834;2023-05-14T10:24:05;20.10;85.60
57026;DHT22;43961;52.940;6.834;2023-05-14T10:26:36;20.10;85.50
57026;DHT22;43961;52.940;6.834;2023-05-14T10:29:04;20.20;84.10
57026;DHT22;43961;52.940;6.834;2023-05-14T10:37:10;20.50;82.10
57026;DHT22;43961;52.940;6.834;2023-05-14T10:39:43;20.50;76.20
57026;DHT22;43961;52.940;6.834;2023-05-14T10:42:18;20.70;79.60
57026;DHT22;43961;52.940;6.834;2023-05-14T10:45:06;20.80;75.50
57026;DHT22;43961;52.940;6.834;2023-05-14T10:47:43;20.80;75.30
57026;DHT22;43961;52.940;6.834;2023-05-14T10:50:11;20.60;78.10
57026;DHT22;43961;52.940;6.834;2023-05-14T10:52:37;20.60;75.20
57026;DHT22;43961;52.940;6.834;2023-05-14T10:55:05;20.80;72.80
57026;DHT22;43961;52.940;6.834;2023-05-14T10:57:42;20.70;72.00
57026;DHT22;43961;52.940;6.834;2023-05-14T11:00:09;20.60;69.80
57026;DHT22;43961;52.940;6.834;2023-05-14T11:02:37;20.50;73.50
57026;DHT22;43961;52.940;6.834;2023-05-14T11:05:06;20.60;74.50
57026;DHT22;43961;52.940;6.834;2023-05-14T11:07:42;20.60;69.20
57026;DHT22;43961;52.940;6.834;2023-05-14T11:10:11;20.80;74.50
57026;DHT22;43961;52.940;6.834;2023-05-14T11:12:40;21.10;77.40
57026;DHT22;43961;52.940;6.834;2023-05-14T11:15:08;21.50;70.50
57026;DHT22;43961;52.940;6.834;2023-05-14T11:17:35;21.70;69.20
57026;DHT22;43961;52.940;6.834;2023-05-14T11:20:01;21.80;72.50
57026;DHT22;43961;52.940;6.834;2023-05-14T11:22:28;21.90;65.30
57026;DHT22;43961;52.940;6.834;2023-05-14T11:24:54;21.80;68.60
57026;DHT22;43961;52.940;6.834;2023-05-14T11:27:20;21.70;65.80
57026;DHT22;43961;52.940;6.834;2023-05-14T11:29:48;21.90;70.90
57026;DHT22;43961;52.940;6.834;2023-05-14T11:32:14;22.10;71.20
57026;DHT22;43961;52.940;6.834;2023-05-14T11:34:41;22.20;72.90
57026;DHT22;43961;52.940;6.834;2023-05-14T11:37:09;22.20;69.60
57026;DHT22;43961;52.940;6.834;2023-05-14T11:39:38;22.10;69.80
57026;DHT22;43961;52.940;6.834;2023-05-14T11:42:10;22.40;72.20
57026;DHT22;43961;52.940;6.834;2023-05-14T11:44:40;22.60;73.00
57026;DHT22;43961;52.940;6.834;2023-05-14T11:47:06;22.80;71.00
57026;DHT22;43961;52.940;6.834;2023-05-14T11:49:32;22.60;65.60
57026;DHT22;43961;52.940;6.834;2023-05-14T11:52:01;22.50;65.80
57026;DHT22;43961;52.940;6.834;2023-05-14T11:54:28;22.60;65.00
57026;DHT22;43961;52.940;6.834;2023-05-14T11:56:58;22.80;67.30
57026;DHT22;43961;52.940;6.834;2023-05-14T11:59:26;23.00;70.90
57026;DHT22;43961;52.940;6.834;2023-05-14T12:01:55;23.30;70.90
57026;DHT22;43961;52.940;6.834;2023-05-14T12:04:21;23.50;68.50
57026;DHT22;43961;52.940;6.834;2023-05-14T12:06:49;23.50;65.60
57026;DHT22;43961;52.940;6.834;2023-05-14T12:09:20;23.30;65.30
57026;DHT22;43961;52.940;6.834;2023-05-14T12:11:47;23.00;57.00
57026;DHT22;43961;52.940;6.834;2023-05-14T12:14:19;22.60;56.20
57026;DHT22;43961;52.940;6.834;2023-05-14T12:16:45;22.40;56.10
57026;DHT22;43961;52.940;6.834;2023-05-14T12:19:16;22.20;57.90
57026;DHT22;43961;52.940;6.834;2023-05-14T12:21:44;22.10;58.90
57026;DHT22;43961;52.940;6.834;2023-05-14T12:24:15;22.00;59.50
57026;DHT22;43961;52.940;6.834;2023-05-14T12:26:46;21.90;57.60
57026;DHT22;43961;52.940;6.834;2023-05-14T12:29:13;21.90;58.10
57026;DHT22;43961;52.940;6.834;2023-05-14T12:31:47;21.90;60.40
57026;DHT22;43961;52.940;6.834;2023-05-14T12:34:13;22.00;58.30
57026;DHT22;43961;52.940;6.834;2023-05-14T12:36:39;22.10;60.10
57026;DHT22;43961;52.940;6.834;2023-05-14T12:39:05;22.20;61.10
57026;DHT22;43961;52.940;6.834;2023-05-14T12:41:31;22.30;59.90
57026;DHT22;43961;52.940;6.834;2023-05-14T12:43:58;22.40;61.80
57026;DHT22;43961;52.940;6.834;2023-05-14T12:46:25;22.60;60.70
57026;DHT22;43961;52.940;6.834;2023-05-14T12:48:54;22.70;59.50
57026;DHT22;43961;52.940;6.834;2023-05-14T12:51:20;22.70;59.20
57026;DHT22;43961;52.940;6.834;2023-05-14T12:53:47;22.70;58.80
57026;DHT22;43961;52.940;6.834;2023-05-14T12:56:13;22.60;61.20
57026;DHT22;43961;52.940;6.834;2023-05-14T12:58:38;22.40;57.10
57026;DHT22;43961;52.940;6.834;2023-05-14T13:01:04;22.20;57.40
57026;DHT22;43961;52.940;6.834;2023-05-14T13:03:30;22.20;57.40
57026;DHT22;43961;52.940;6.834;2023-05-14T13:05:56;22.20;58.00
57026;DHT22;43961;52.940;6.834;2023-05-14T13:08:22;22.40;58.90
57026;DHT22;43961;52.940;6.834;2023-05-14T13:10:53;22.40;59.50
57026;DHT22;43961;52.940;6.834;2023-05-14T13:13:19;22.40;58.40
57026;DHT22;43961;52.940;6.834;2023-05-14T13:15:45;22.40;59.50
57026;DHT22;43961;52.940;6.834;2023-05-14T13:18:14;22.60;63.20
57026;DHT22;43961;52.940;6.834;2023-05-14T13:20:40;22.80;65.30
57026;DHT22;43961;52.940;6.834;2023-05-14T13:23:06;22.90;62.80
57026;DHT22;43961;52.940;6.834;2023-05-14T13:25:32;23.00;60.00
57026;DHT22;43961;52.940;6.834;2023-05-14T13:27:58;23.00;58.60
57026;DHT22;43961;52.940;6.834;2023-05-14T13:30:24;23.10;61.60
57026;DHT22;43961;52.940;6.834;2023-05-14T13:32:51;23.20;58.70
57026;DHT22;43961;52.940;6.834;2023-05-14T13:35:17;23.30;60.50
57026;DHT22;43961;52.940;6.834;2023-05-14T13:37:43;23.30;59.90
57026;DHT22;43961;52.940;6.834;2023-05-14T13:40:09;23.50;62.90
57026;DHT22;43961;52.940;6.834;2023-05-14T13:42:35;23.60;59.60
57026;DHT22;43961;52.940;6.834;2023-05-14T13:45:01;23.30;58.60
57026;DHT22;43961;52.940;6.834;2023-05-14T13:47:27;22.90;57.00
57026;DHT22;43961;52.940;6.834;2023-05-14T13:49:54;22.70;58.30
57026;DHT22;43961;52.940;6.834;2023-05-14T13:52:20;22.50;57.90
57026;DHT22;43961;52.940;6.834;2023-05-14T13:54:46;22.50;57.10
57026;DHT22;43961;52.940;6.834;2023-05-14T13:57:12;22.40;58.80
57026;DHT22;43961;52.940;6.834;2023-05-14T13:59:38;22.50;60.00
57026;DHT22;43961;52.940;6.834;2023-05-14T14:02:04;22.50;57.70
57026;DHT22;43961;52.940;6.834;2023-05-14T14:04:29;22.60;60.10
57026;DHT22;43961;52.940;6.834;2023-05-14T14:06:56;22.70;56.50
57026;DHT22;43961;52.940;6.834;2023-05-14T14:09:22;22.90;55.10
57026;DHT22;43961;52.940;6.834;2023-05-14T14:11:48;22.80;54.80
57026;DHT22;43961;52.940;6.834;2023-05-14T14:14:14;22.70;54.50
57026;DHT22;43961;52.940;6.834;2023-05-14T14:16:39;22.80;59.20
57026;DHT22;43961;52.940;6.834;2023-05-14T14:19:06;22.90;54.50
57026;DHT22;43961;52.940;6.834;2023-05-14T14:21:32;23.00;58.60
57026;DHT22;43961;52.940;6.834;2023-05-14T14:23:58;23.00;56.50
57026;DHT22;43961;52.940;6.834;2023-05-14T14:26:24;23.20;56.50
57026;DHT22;43961;52.940;6.834;2023-05-14T14:28:52;23.20;51.70
57026;DHT22;43961;52.940;6.834;2023-05-14T14:31:18;23.20;56.20
57026;DHT22;43961;52.940;6.834;2023-05-14T14:33:46;23.20;55.80
57026;DHT22;43961;52.940;6.834;2023-05-14T14:36:12;23.10;49.80
57026;DHT22;43961;52.940;6.834;2023-05-14T14:38:38;23.20;51.00
57026;DHT22;43961;52.940;6.834;2023-05-14T14:41:04;23.10;50.90
57026;DHT22;43961;52.940;6.834;2023-05-14T14:43:32;23.00;49.00
57026;DHT22;43961;52.940;6.834;2023-05-14T14:45:58;22.80;47.50
57026;DHT22;43961;52.940;6.834;2023-05-14T14:48:31;22.70;51.70
57026;DHT22;43961;52.940;6.834;2023-05-14T14:51:04;22.80;50.40
57026;DHT22;43961;52.940;6.834;2023-05-14T14:53:31;22.70;54.40
57026;DHT22;43961;52.940;6.834;2023-05-14T14:55:57;22.70;53.00
57026;DHT22;43961;52.940;6.834;2023-05-14T14:58:23;22.80;57.50
57026;DHT22;43961;52.940;6.834;2023-05-14T15:00:51;22.90;52.20
57026;DHT22;43961;52.940;6.834;2023-05-14T15:03:17;22.80;47.70
57026;DHT22;43961;52.940;6.834;2023-05-14T15:05:43;22.70;50.70
57026;DHT22;43961;52.940;6.834;2023-05-14T15:08:10;22.60;52.20
57026;DHT22;43961;52.940;6.834;2023-05-14T15:10:35;22.50;52.10
57026;DHT22;43961;52.940;6.834;2023-05-14T15:13:04;22.30;50.60
57026;DHT22;43961;52.940;6.834;2023-05-14T15:15:31;22.20;51.70
57026;DHT22;43961;52.940;6.834;2023-05-14T15:17:56;22.10;52.40
57026;DHT22;43961;52.940;6.834;2023-05-14T15:20:22;22.10;52.10
57026;DHT22;43961;52.940;6.834;2023-05-14T15:22:48;22.10;53.80
57026;DHT22;43961;52.940;6.834;2023-05-14T15:25:18;22.00;53.10
57026;DHT22;43961;52.940;6.834;2023-05-14T15:27:44;21.90;54.10
57026;DHT22;43961;52.940;6.834;2023-05-14T15:30:10;21.90;54.80
57026;DHT22;43961;52.940;6.834;2023-05-14T15:32:36;21.80;56.70
57026;DHT22;43961;52.940;6.834;2023-05-14T15:35:02;21.90;54.30